sensor_id;sensor_type;location;lat;lon;timestamp;pressure;altitude;pressure_sealevel;temperature;humidity
71795;BME280;59641;45.188;5.712;2023-04-25T00:00:29;98871.63;;;17.92;43.37
71795;BME280;59641;45.188;5.712;2023-04-25T00:02:54;98880.34;;;17.88;43.71
71795;BME280;59641;45.188;5.712;2023-04-25T00:05:22;98876.81;;;17.88;43.22
71795;BME280;59641;45.188;5.712;2023-04-25T00:07:48;98868.69;;;17.88;43.30
71795;BME280;59641;45.188;5.712;2023-04-25T00:10:14;98857.03;;;17.87;43.34
71795;BME280;59641;45.188;5.712;2023-04-25T00:12:39;98861.91;;;17.85;43.56
71795;BME280;59641;45.188;5.712;2023-04-25T00:15:06;98868.41;;;17.84;43.64
71795;BME280;59641;45.188;5.712;2023-04-25T00:17:31;98867.91;;;17.82;43.40
71795;BME280;59641;45.188;5.712;2023-04-25T00:19:56;98868.19;;;17.81;43.91
71795;BME280;59641;45.188;5.712;2023-04-25T00:22:23;98866.28;;;17.81;43.79
71795;BME280;59641;45.188;5.712;2023-04-25T00:24:48;98866.28;;;17.81;43.48
71795;BME280;59641;45.188;5.712;2023-04-25T00:27:14;98851.09;;;17.80;43.85
71795;BME280;59641;45.188;5.712;2023-04-25T00:29:40;98851.09;;;17.80;43.73
71795;BME280;59641;45.188;5.712;2023-04-25T00:32:05;98858.41;;;17.80;43.76
71795;BME280;59641;45.188;5.712;2023-04-25T00:34:30;98861.94;;;17.80;43.93
71795;BME280;59641;45.188;5.712;2023-04-25T00:36:56;98855.41;;;17.81;43.78
71795;BME280;59641;45.188;5.712;2023-04-25T00:39:22;98852.13;;;17.79;44.09
71795;BME280;59641;45.188;5.712;2023-04-25T00:41:47;98861.94;;;17.80;43.67
71795;BME280;59641;45.188;5.712;2023-04-25T00:44:14;98864.34;;;17.82;43.95
71795;BME280;59641;45.188;5.712;2023-04-25T00:46:42;98862.19;;;17.79;44.22
71795;BME280;59641;45.188;5.712;2023-04-25T00:49:07;98853.22;;;17.78;44.23
71795;BME280;59641;45.188;5.712;2023-04-25T00:51:33;98847.81;;;17.78;44.16
71795;BME280;59641;45.188;5.712;2023-04-25T00:54:00;98847.81;;;17.78;44.25
71795;BME280;59641;45.188;5.712;2023-04-25T00:56:25;98842.66;;;17.77;44.28
71795;BME280;59641;45.188;5.712;2023-04-25T00:58:53;98826.38;;;17.77;44.05
71795;BME280;59641;45.188;5.712;2023-04-25T01:01:22;98821.25;;;17.75;43.92
71795;BME280;59641;45.188;5.712;2023-04-25T01:03:49;98821.50;;;17.74;44.16
71795;BME280;59641;45.188;5.712;2023-04-25T01:06:16;98819.91;;;17.73;44.03
71795;BME280;59641;45.188;5.712;2023-04-25T01:08:41;98828.31;;;17.71;44.24
71795;BME280;59641;45.188;5.712;2023-04-25T01:11:07;98824.78;;;17.71;44.46
71795;BME280;59641;45.188;5.712;2023-04-25T01:13:33;98834.31;;;17.68;45.19
71795;BME280;59641;45.188;5.712;2023-04-25T01:16:00;98829.94;;;17.67;45.35
71795;BME280;59641;45.188;5.712;2023-04-25T01:18:25;98823.44;;;17.68;45.12
71795;BME280;59641;45.188;5.712;2023-04-25T01:20:52;98823.44;;;17.68;45.19
71795;BME280;59641;45.188;5.712;2023-04-25T01:23:21;98823.44;;;17.68;45.07
71795;BME280;59641;45.188;5.712;2023-04-25T01:25:48;98820.19;;;17.66;45.32
71795;BME280;59641;45.188;5.712;2023-04-25T01:28:14;98823.72;;;17.66;45.88
71795;BME280;59641;45.188;5.712;2023-04-25T01:30:40;98825.91;;;17.64;45.85
71795;BME280;59641;45.188;5.712;2023-04-25T01:33:07;98820.19;;;17.66;45.76
71795;BME280;59641;45.188;5.712;2023-04-25T01:35:33;98823.72;;;17.66;45.90
71795;BME280;59641;45.188;5.712;2023-04-25T01:37:59;98821.81;;;17.67;46.10
71795;BME280;59641;45.188;5.712;2023-04-25T01:40:25;98824.53;;;17.67;45.60
71795;BME280;59641;45.188;5.712;2023-04-25T01:42:51;98820.19;;;17.66;45.76
71795;BME280;59641;45.188;5.712;2023-04-25T01:45:17;98822.38;;;17.64;46.16
71795;BME280;59641;45.188;5.712;2023-04-25T01:47:43;98815.31;;;17.63;46.03
71795;BME280;59641;45.188;5.712;2023-04-25T01:50:11;98815.31;;;17.63;45.68
71795;BME280;59641;45.188;5.712;2023-04-25T01:52:37;98817.22;;;17.62;45.49
71795;BME280;59641;45.188;5.712;2023-04-25T01:55:05;98813.69;;;17.62;45.17
71795;BME280;59641;45.188;5.712;2023-04-25T01:57:30;98813.69;;;17.62;45.76
71795;BME280;59641;45.188;5.712;2023-04-25T02:00:01;98804.75;;;17.61;45.54
71795;BME280;59641;45.188;5.712;2023-04-25T02:02:27;98818.31;;;17.61;45.50
71795;BME280;59641;45.188;5.712;2023-04-25T02:04:53;98811.25;;;17.60;45.62
71795;BME280;59641;45.188;5.712;2023-04-25T02:07:19;98812.09;;;17.61;45.58
71795;BME280;59641;45.188;5.712;2023-04-25T02:09:45;98811.56;;;17.59;45.23
71795;BME280;59641;45.188;5.712;2023-04-25T02:12:10;98802.88;;;17.57;45.73
71795;BME280;59641;45.188;5.712;2023-04-25T02:14:36;98791.75;;;17.58;45.29
71795;BME280;59641;45.188;5.712;2023-04-25T02:17:01;98797.47;;;17.57;45.62
71795;BME280;59641;45.188;5.712;2023-04-25T02:19:27;98788.78;;;17.55;45.38
71795;BME280;59641;45.188;5.712;2023-04-25T02:21:52;98785.81;;;17.56;46.00
71795;BME280;59641;45.188;5.712;2023-04-25T02:24:18;98801.53;;;17.54;45.88
71795;BME280;59641;45.188;5.712;2023-04-25T02:26:43;98798.03;;;17.54;45.56
71795;BME280;59641;45.188;5.712;2023-04-25T02:29:10;98792.59;;;17.54;46.06
71795;BME280;59641;45.188;5.712;2023-04-25T02:31:35;98788.53;;;17.51;45.75
71795;BME280;59641;45.188;5.712;2023-04-25T02:34:01;98790.16;;;17.52;46.32
71795;BME280;59641;45.188;5.712;2023-04-25T02:36:26;98789.34;;;17.52;46.25
71795;BME280;59641;45.188;5.712;2023-04-25T02:38:51;98798.56;;;17.51;45.95
71795;BME280;59641;45.188;5.712;2023-04-25T02:41:17;98803.97;;;17.51;46.24
71795;BME280;59641;45.188;5.712;2023-04-25T02:43:42;98799.66;;;17.50;45.98
71795;BME280;59641;45.188;5.712;2023-04-25T02:46:08;98797.22;;;17.48;45.67
71795;BME280;59641;45.188;5.712;2023-04-25T02:48:33;98799.41;;;17.46;45.96
71795;BME280;59641;45.188;5.712;2023-04-25T02:50:59;98804.31;;;17.44;46.29
71795;BME280;59641;45.188;5.712;2023-04-25T02:53:24;98795.34;;;17.43;45.90
71795;BME280;59641;45.188;5.712;2023-04-25T02:55:49;98801.06;;;17.42;46.16
71795;BME280;59641;45.188;5.712;2023-04-25T02:58:15;98795.91;;;17.40;46.80
71795;BME280;59641;45.188;5.712;2023-04-25T03:00:40;98791.28;;;17.41;46.36
71795;BME280;59641;45.188;5.712;2023-04-25T03:03:06;98797.81;;;17.40;46.72
71795;BME280;59641;45.188;5.712;2023-04-25T03:05:31;98802.13;;;17.41;46.59
71795;BME280;59641;45.188;5.712;2023-04-25T03:07:56;98800.53;;;17.40;46.75
71795;BME280;59641;45.188;5.712;2023-04-25T03:10:22;98795.38;;;17.38;46.59
71795;BME280;59641;45.188;5.712;2023-04-25T03:12:47;98805.97;;;17.35;46.47
71795;BME280;59641;45.188;5.712;2023-04-25T03:15:12;98804.63;;;17.32;46.44
71795;BME280;59641;45.188;5.712;2023-04-25T03:17:38;98804.09;;;17.30;46.49
71795;BME280;59641;45.188;5.712;2023-04-25T03:20:04;98797.59;;;17.26;46.84
71795;BME280;59641;45.188;5.712;2023-04-25T03:22:29;98792.72;;;17.23;46.73
71795;BME280;59641;45.188;5.712;2023-04-25T03:24:55;98795.16;;;17.19;46.66
71795;BME280;59641;45.188;5.712;2023-04-25T03:27:20;98787.88;;;17.15;46.73
71795;BME280;59641;45.188;5.712;2023-04-25T03:29:45;98789.22;;;17.12;46.80
71795;BME280;59641;45.188;5.712;2023-04-25T03:32:11;98790.91;;;17.08;46.75
71795;BME280;59641;45.188;5.712;2023-04-25T03:34:36;98799.03;;;17.08;46.71
71795;BME280;59641;45.188;5.712;2023-04-25T03:37:01;98795.78;;;17.06;46.88
71795;BME280;59641;45.188;5.712;2023-04-25T03:39:27;98787.09;;;17.04;46.50
71795;BME280;59641;45.188;5.712;2023-04-25T03:41:52;98795.78;;;17.01;46.64
71795;BME280;59641;45.188;5.712;2023-04-25T03:44:17;98793.63;;;16.98;46.64
71795;BME280;59641;45.188;5.712;2023-04-25T03:46:43;98790.41;;;16.96;46.69
71795;BME280;59641;45.188;5.712;2023-04-25T03:49:08;98777.94;;;16.90;46.51
71795;BME280;59641;45.188;5.712;2023-04-25T03:51:33;98785.53;;;16.88;46.32
71795;BME280;59641;45.188;5.712;2023-04-25T03:53:59;98793.41;;;16.84;46.32
71795;BME280;59641;45.188;5.712;2023-04-25T03:56:24;98791.53;;;16.79;46.69
71795;BME280;59641;45.188;5.712;2023-04-25T03:58:50;98791.22;;;16.76;46.77
71795;BME280;59641;45.188;5.712;2023-04-25T04:01:15;98792.03;;;16.71;46.81
71795;BME280;59641;45.188;5.712;2023-04-25T04:03:40;98786.91;;;16.70;46.74
71795;BME280;59641;45.188;5.712;2023-04-25T04:06:07;98789.88;;;16.68;46.72
71795;BME280;59641;45.188;5.712;2023-04-25T04:08:33;98792.03;;;16.66;46.79
71795;BME280;59641;45.188;5.712;2023-04-25T04:10:59;98791.25;;;16.66;46.36
71795;BME280;59641;45.188;5.712;2023-04-25T04:13:28;98811.56;;;16.63;45.74
71795;BME280;59641;45.188;5.712;2023-04-25T04:15:57;98807.50;;;16.55;45.41
71795;BME280;59641;45.188;5.712;2023-04-25T04:18:23;98799.91;;;16.47;45.79
71795;BME280;59641;45.188;5.712;2023-04-25T04:20:48;98806.69;;;16.45;45.46
71795;BME280;59641;45.188;5.712;2023-04-25T04:23:14;98807.78;;;16.38;45.97
71795;BME280;59641;45.188;5.712;2023-04-25T04:25:39;98807.50;;;16.35;45.67
71795;BME280;59641;45.188;5.712;2023-04-25T04:28:06;98806.16;;;16.27;45.90
71795;BME280;59641;45.188;5.712;2023-04-25T04:30:32;98808.31;;;16.25;46.14
71795;BME280;59641;45.188;5.712;2023-04-25T04:32:58;98807.25;;;16.21;46.07
71795;BME280;59641;45.188;5.712;2023-04-25T04:35:26;98810.47;;;16.18;46.41
71795;BME280;59641;45.188;5.712;2023-04-25T04:37:51;98816.44;;;16.15;46.18
71795;BME280;59641;45.188;5.712;2023-04-25T04:40:17;98828.63;;;16.17;46.08
71795;BME280;59641;45.188;5.712;2023-04-25T04:42:44;98831.06;;;16.19;46.41
71795;BME280;59641;45.188;5.712;2023-04-25T04:45:13;98832.69;;;16.20;46.23
71795;BME280;59641;45.188;5.712;2023-04-25T04:47:39;98837.56;;;16.23;46.07
71795;BME280;59641;45.188;5.712;2023-04-25T04:50:06;98840.81;;;16.25;46.08
71795;BME280;59641;45.188;5.712;2023-04-25T04:52:34;98847.56;;;16.28;46.04
71795;BME280;59641;45.188;5.712;2023-04-25T04:54:59;98854.09;;;16.27;46.19
71795;BME280;59641;45.188;5.712;2023-04-25T04:57:25;98851.63;;;16.25;46.27
71795;BME280;59641;45.188;5.712;2023-04-25T04:59:51;98855.44;;;16.24;46.25
71795;BME280;59641;45.188;5.712;2023-04-25T05:02:16;98853.00;;;16.23;46.22
71795;BME280;59641;45.188;5.712;2023-04-25T05:04:41;98853.28;;;16.21;46.04
71795;BME280;59641;45.188;5.712;2023-04-25T05:07:07;98853.28;;;16.21;46.16
71795;BME280;59641;45.188;5.712;2023-04-25T05:09:33;98856.50;;;16.23;45.73
71795;BME280;59641;45.188;5.712;2023-04-25T05:11:58;98862.19;;;16.22;46.13
71795;BME280;59641;45.188;5.712;2023-04-25T05:14:23;98864.91;;;16.22;45.97
71795;BME280;59641;45.188;5.712;2023-04-25T05:16:49;98862.19;;;16.22;45.86
71795;BME280;59641;45.188;5.712;2023-04-25T05:19:14;98868.41;;;16.22;45.95
71795;BME280;59641;45.188;5.712;2023-04-25T05:21:40;98876.28;;;16.24;45.79
71795;BME280;59641;45.188;5.712;2023-04-25T05:24:05;98882.75;;;16.23;45.91
71795;BME280;59641;45.188;5.712;2023-04-25T05:26:30;98883.31;;;16.25;46.20
71795;BME280;59641;45.188;5.712;2023-04-25T05:28:57;98883.56;;;16.23;45.88
71795;BME280;59641;45.188;5.712;2023-04-25T05:31:22;98885.47;;;16.23;46.10
71795;BME280;59641;45.188;5.712;2023-04-25T05:33:48;98891.44;;;16.25;46.22
71795;BME280;59641;45.188;5.712;2023-04-25T05:36:13;98898.47;;;16.26;46.32
71795;BME280;59641;45.188;5.712;2023-04-25T05:38:38;98910.94;;;16.27;46.33
71795;BME280;59641;45.188;5.712;2023-04-25T05:41:04;98906.31;;;16.27;46.31
71795;BME280;59641;45.188;5.712;2023-04-25T05:43:29;98908.78;;;16.29;45.92
71795;BME280;59641;45.188;5.712;2023-04-25T05:45:55;98916.06;;;16.28;46.08
71795;BME280;59641;45.188;5.712;2023-04-25T05:48:20;98912.53;;;16.28;45.96
71795;BME280;59641;45.188;5.712;2023-04-25T05:50:45;98917.41;;;16.26;46.40
71795;BME280;59641;45.188;5.712;2023-04-25T05:53:11;98916.59;;;16.25;46.02
71795;BME280;59641;45.188;5.712;2023-04-25T05:55:36;98920.94;;;16.21;45.96
71795;BME280;59641;45.188;5.712;2023-04-25T05:58:02;98918.50;;;16.19;46.43
71795;BME280;59641;45.188;5.712;2023-04-25T06:00:27;98925.53;;;16.21;46.16
71795;BME280;59641;45.188;5.712;2023-04-25T06:02:52;98918.25;;;16.21;46.03
71795;BME280;59641;45.188;5.712;2023-04-25T06:05:18;98926.38;;;16.21;46.22
71795;BME280;59641;45.188;5.712;2023-04-25T06:07:43;98930.38;;;16.18;46.47
71795;BME280;59641;45.188;5.712;2023-04-25T06:10:09;98935.28;;;16.16;46.67
71795;BME280;59641;45.188;5.712;2023-04-25T06:12:35;98941.75;;;16.15;46.61
71795;BME280;59641;45.188;5.712;2023-04-25T06:15:00;98940.69;;;16.16;46.48
71795;BME280;59641;45.188;5.712;2023-04-25T06:17:26;98942.31;;;16.17;46.80
71795;BME280;59641;45.188;5.712;2023-04-25T06:19:51;98945.31;;;16.21;46.64
71795;BME280;59641;45.188;5.712;2023-04-25T06:22:16;98953.97;;;16.23;46.80
71795;BME280;59641;45.188;5.712;2023-04-25T06:24:42;98938.81;;;16.27;46.74
71795;BME280;59641;45.188;5.712;2023-04-25T06:27:07;98942.06;;;16.29;46.68
71795;BME280;59641;45.188;5.712;2023-04-25T06:29:33;98940.97;;;16.30;47.03
71795;BME280;59641;45.188;5.712;2023-04-25T06:31:58;98946.94;;;16.32;47.44
71795;BME280;59641;45.188;5.712;2023-04-25T06:34:23;98951.28;;;16.33;47.48
71795;BME280;59641;45.188;5.712;2023-04-25T06:36:49;98957.22;;;16.35;48.08
71795;BME280;59641;45.188;5.712;2023-04-25T06:39:14;98955.06;;;16.37;47.62
71795;BME280;59641;45.188;5.712;2023-04-25T06:41:40;98949.41;;;16.39;47.75
71795;BME280;59641;45.188;5.712;2023-04-25T06:44:05;98961.59;;;16.42;47.69
71795;BME280;59641;45.188;5.712;2023-04-25T06:46:31;98957.78;;;16.43;47.41
71795;BME280;59641;45.188;5.712;2023-04-25T06:48:56;98961.34;;;16.43;47.36
71795;BME280;59641;45.188;5.712;2023-04-25T06:51:22;98962.13;;;16.44;47.32
71795;BME280;59641;45.188;5.712;2023-04-25T06:53:47;98958.06;;;16.41;47.38
71795;BME280;59641;45.188;5.712;2023-04-25T06:56:12;98952.91;;;16.45;47.63
71795;BME280;59641;45.188;5.712;2023-04-25T06:58:38;98951.06;;;16.45;47.60
71795;BME280;59641;45.188;5.712;2023-04-25T07:01:03;98952.13;;;16.44;47.68
71795;BME280;59641;45.188;5.712;2023-04-25T07:03:28;98956.47;;;16.45;47.56
71795;BME280;59641;45.188;5.712;2023-04-25T07:05:54;98953.47;;;16.47;47.41
71795;BME280;59641;45.188;5.712;2023-04-25T07:08:20;98948.06;;;16.47;47.12
71795;BME280;59641;45.188;5.712;2023-04-25T07:10:46;98955.13;;;16.48;47.59
71795;BME280;59641;45.188;5.712;2023-04-25T07:13:11;98964.03;;;16.48;47.20
71795;BME280;59641;45.188;5.712;2023-04-25T07:15:37;98965.09;;;16.47;47.24
71795;BME280;59641;45.188;5.712;2023-04-25T07:18:02;98990.56;;;16.41;47.01
71795;BME280;59641;45.188;5.712;2023-04-25T07:20:28;98976.47;;;16.34;47.14
71795;BME280;59641;45.188;5.712;2023-04-25T07:22:53;98980.22;;;16.28;47.27
71795;BME280;59641;45.188;5.712;2023-04-25T07:25:19;98982.66;;;16.24;47.15
71795;BME280;59641;45.188;5.712;2023-04-25T07:27:45;98981.88;;;16.24;47.54
71795;BME280;59641;45.188;5.712;2023-04-25T07:30:10;98982.94;;;16.23;47.53
71795;BME280;59641;45.188;5.712;2023-04-25T07:32:37;98981.31;;;16.22;47.20
71795;BME280;59641;45.188;5.712;2023-04-25T07:35:02;98987.78;;;16.15;46.90
71795;BME280;59641;45.188;5.712;2023-04-25T07:37:28;98986.41;;;16.13;47.24
71795;BME280;59641;45.188;5.712;2023-04-25T07:39:53;98979.09;;;16.13;46.98
71795;BME280;59641;45.188;5.712;2023-04-25T07:42:19;98979.38;;;16.12;47.25
71795;BME280;59641;45.188;5.712;2023-04-25T07:44:44;98990.47;;;16.10;46.95
71795;BME280;59641;45.188;5.712;2023-04-25T07:47:10;98995.09;;;16.15;46.83
71795;BME280;59641;45.188;5.712;2023-04-25T07:49:36;98989.13;;;16.18;46.83
71795;BME280;59641;45.188;5.712;2023-04-25T07:52:03;98992.94;;;16.22;46.84
71795;BME280;59641;45.188;5.712;2023-04-25T07:54:29;98993.50;;;16.24;46.51
71795;BME280;59641;45.188;5.712;2023-04-25T07:56:55;99001.09;;;16.27;46.64
71795;BME280;59641;45.188;5.712;2023-04-25T07:59:20;99006.50;;;16.32;47.08
71795;BME280;59641;45.188;5.712;2023-04-25T08:01:46;99002.44;;;16.35;46.85
71795;BME280;59641;45.188;5.712;2023-04-25T08:04:12;99008.72;;;16.40;46.54
71795;BME280;59641;45.188;5.712;2023-04-25T08:06:37;99012.78;;;16.43;46.25
71795;BME280;59641;45.188;5.712;2023-04-25T08:09:03;99020.06;;;16.43;46.35
71795;BME280;59641;45.188;5.712;2023-04-25T08:11:29;99017.91;;;16.45;46.29
71795;BME280;59641;45.188;5.712;2023-04-25T08:13:55;99017.41;;;16.48;46.38
71795;BME280;59641;45.188;5.712;2023-04-25T08:16:20;99027.69;;;16.51;46.39
71795;BME280;59641;45.188;5.712;2023-04-25T08:18:47;99027.97;;;16.54;46.05
71795;BME280;59641;45.188;5.712;2023-04-25T08:21:12;99027.69;;;16.56;46.31
71795;BME280;59641;45.188;5.712;2023-04-25T08:23:38;99024.19;;;16.55;46.29
71795;BME280;59641;45.188;5.712;2023-04-25T08:26:04;99023.63;;;16.53;46.11
71795;BME280;59641;45.188;5.712;2023-04-25T08:28:31;99020.94;;;16.53;46.23
71795;BME280;59641;45.188;5.712;2023-04-25T08:30:56;99016.88;;;16.56;46.22
71795;BME280;59641;45.188;5.712;2023-04-25T08:33:22;99019.03;;;16.59;46.25
71795;BME280;59641;45.188;5.712;2023-04-25T08:35:47;99023.94;;;16.62;45.96
71795;BME280;59641;45.188;5.712;2023-04-25T08:38:13;99021.50;;;16.66;45.52
71795;BME280;59641;45.188;5.712;2023-04-25T08:40:39;99030.72;;;16.65;45.47
71795;BME280;59641;45.188;5.712;2023-04-25T08:43:08;99041.81;;;16.63;45.64
71795;BME280;59641;45.188;5.712;2023-04-25T08:45:40;99040.44;;;16.60;45.29
71795;BME280;59641;45.188;5.712;2023-04-25T08:48:10;99045.06;;;16.60;45.27
71795;BME280;59641;45.188;5.712;2023-04-25T08:50:39;99055.88;;;16.60;45.76
71795;BME280;59641;45.188;5.712;2023-04-25T08:53:08;99050.19;;;16.61;45.49
71795;BME280;59641;45.188;5.712;2023-04-25T08:55:37;99057.50;;;16.66;45.69
71795;BME280;59641;45.188;5.712;2023-04-25T08:58:02;99060.78;;;16.68;44.94
71795;BME280;59641;45.188;5.712;2023-04-25T09:00:29;99057.00;;;16.69;45.46
71795;BME280;59641;45.188;5.712;2023-04-25T09:02:54;99064.59;;;16.72;45.34
71795;BME280;59641;45.188;5.712;2023-04-25T09:05:22;99073.25;;;16.74;45.24
71795;BME280;59641;45.188;5.712;2023-04-25T09:07:47;99075.22;;;16.79;45.58
71795;BME280;59641;45.188;5.712;2023-04-25T09:10:13;99073.56;;;16.83;45.15
71795;BME280;59641;45.188;5.712;2023-04-25T09:12:38;99077.13;;;16.89;44.92
71795;BME280;59641;45.188;5.712;2023-04-25T09:15:08;99070.91;;;16.93;45.20
71795;BME280;59641;45.188;5.712;2023-04-25T09:17:34;99077.69;;;16.96;44.59
71795;BME280;59641;45.188;5.712;2023-04-25T09:20:11;99078.50;;;17.01;44.54
71795;BME280;59641;45.188;5.712;2023-04-25T09:22:37;99082.00;;;17.02;44.31
71795;BME280;59641;45.188;5.712;2023-04-25T09:25:07;99069.00;;;17.09;44.45
71795;BME280;59641;45.188;5.712;2023-04-25T09:27:33;99076.63;;;17.17;44.24
71795;BME280;59641;45.188;5.712;2023-04-25T09:29:59;99070.66;;;17.25;43.80
71795;BME280;59641;45.188;5.712;2023-04-25T09:32:26;99082.59;;;17.35;43.49
71795;BME280;59641;45.188;5.712;2023-04-25T09:34:53;99063.59;;;17.40;43.44
71795;BME280;59641;45.188;5.712;2023-04-25T09:37:20;99062.50;;;17.46;42.19
71795;BME280;59641;45.188;5.712;2023-04-25T09:39:46;99064.13;;;17.47;42.37
71795;BME280;59641;45.188;5.712;2023-04-25T09:42:14;99055.72;;;17.43;42.15
71795;BME280;59641;45.188;5.712;2023-04-25T09:44:46;99060.88;;;17.45;42.03
71795;BME280;59641;45.188;5.712;2023-04-25T09:47:14;99064.94;;;17.48;42.61
71795;BME280;59641;45.188;5.712;2023-04-25T09:49:41;99070.66;;;17.51;41.89
71795;BME280;59641;45.188;5.712;2023-04-25T09:52:14;99066.03;;;17.57;41.75
71795;BME280;59641;45.188;5.712;2023-04-25T09:54:40;99063.03;;;17.58;41.60
71795;BME280;59641;45.188;5.712;2023-04-25T09:57:17;99066.28;;;17.65;41.64
71795;BME280;59641;45.188;5.712;2023-04-25T09:59:46;99062.75;;;17.65;41.07
71795;BME280;59641;45.188;5.712;2023-04-25T10:02:18;99069.00;;;17.71;41.51
71795;BME280;59641;45.188;5.712;2023-04-25T10:04:51;99069.25;;;17.74;41.49
71795;BME280;59641;45.188;5.712;2023-04-25T10:07:23;99059.75;;;17.77;40.93
71795;BME280;59641;45.188;5.712;2023-04-25T10:09:56;99058.16;;;17.81;41.42
71795;BME280;59641;45.188;5.712;2023-04-25T10:12:24;99056.78;;;17.83;41.10
71795;BME280;59641;45.188;5.712;2023-04-25T10:14:50;99053.50;;;17.86;40.60
71795;BME280;59641;45.188;5.712;2023-04-25T10:17:17;99060.03;;;17.85;40.65
71795;BME280;59641;45.188;5.712;2023-04-25T10:19:43;99051.91;;;17.85;39.95
71795;BME280;59641;45.188;5.712;2023-04-25T10:22:30;99054.59;;;17.91;40.76
71795;BME280;59641;45.188;5.712;2023-04-25T10:24:58;99058.13;;;17.91;40.51
71795;BME280;59641;45.188;5.712;2023-04-25T10:27:23;99058.41;;;17.90;40.72
71795;BME280;59641;45.188;5.712;2023-04-25T10:32:31;99050.25;;;17.90;40.70
71795;BME280;59641;45.188;5.712;2023-04-25T10:35:17;99042.38;;;17.93;40.46
71795;BME280;59641;45.188;5.712;2023-04-25T10:38:05;99040.75;;;17.97;40.38
71795;BME280;59641;45.188;5.712;2023-04-25T10:40:31;99035.00;;;17.99;40.14
71795;BME280;59641;45.188;5.712;2023-04-25T10:45:54;99035.50;;;18.11;40.06
71795;BME280;59641;45.188;5.712;2023-04-25T10:48:26;99035.22;;;18.18;40.27
71795;BME280;59641;45.188;5.712;2023-04-25T10:51:11;99029.75;;;18.23;39.96
71795;BME280;59641;45.188;5.712;2023-04-25T10:53:37;99030.56;;;18.28;39.93
71795;BME280;59641;45.188;5.712;2023-04-25T10:56:24;99021.56;;;18.38;39.56
71795;BME280;59641;45.188;5.712;2023-04-25T10:58:50;99028.03;;;18.42;38.99
71795;BME280;59641;45.188;5.712;2023-04-25T11:01:20;99023.69;;;18.46;38.54
71795;BME280;59641;45.188;5.712;2023-04-25T11:03:46;99015.22;;;18.53;39.25
71795;BME280;59641;45.188;5.712;2023-04-25T11:06:22;99010.31;;;18.55;37.17
71795;BME280;59641;45.188;5.712;2023-04-25T11:08:50;99011.41;;;18.54;38.17
71795;BME280;59641;45.188;5.712;2023-04-25T11:11:17;99007.34;;;18.51;38.40
71795;BME280;59641;45.188;5.712;2023-04-25T11:13:43;99000.03;;;18.47;37.87
71795;BME280;59641;45.188;5.712;2023-04-25T11:16:08;98999.81;;;18.43;37.70
71795;BME280;59641;45.188;5.712;2023-04-25T11:18:34;98998.16;;;18.42;37.63
71795;BME280;59641;45.188;5.712;2023-04-25T11:21:00;99002.47;;;18.48;38.38
71795;BME280;59641;45.188;5.712;2023-04-25T11:23:26;98997.28;;;18.57;37.14
71795;BME280;59641;45.188;5.712;2023-04-25T11:25:55;98993.09;;;18.70;37.27
71795;BME280;59641;45.188;5.712;2023-04-25T11:28:21;98991.97;;;18.81;37.15
71795;BME280;59641;45.188;5.712;2023-04-25T11:30:50;98982.63;;;18.92;35.97
71795;BME280;59641;45.188;5.712;2023-04-25T11:33:16;98983.97;;;19.00;35.49
71795;BME280;59641;45.188;5.712;2023-04-25T11:35:42;98983.06;;;19.10;36.62
71795;BME280;59641;45.188;5.712;2023-04-25T11:38:07;98975.56;;;19.26;35.55
71795;BME280;59641;45.188;5.712;2023-04-25T11:40:35;98983.34;;;19.37;35.09
71795;BME280;59641;45.188;5.712;2023-04-25T11:43:01;98970.47;;;19.43;35.39
71795;BME280;59641;45.188;5.712;2023-04-25T11:45:26;98974.50;;;19.51;35.38
71795;BME280;59641;45.188;5.712;2023-04-25T11:47:52;98972.75;;;19.60;35.68
71795;BME280;59641;45.188;5.712;2023-04-25T11:50:17;98969.97;;;19.70;35.61
71795;BME280;59641;45.188;5.712;2023-04-25T11:52:45;98979.34;;;19.83;35.91
71795;BME280;59641;45.188;5.712;2023-04-25T11:55:15;98980.00;;;19.99;35.69
71795;BME280;59641;45.188;5.712;2023-04-25T11:57:43;98967.31;;;20.08;34.75
71795;BME280;59641;45.188;5.712;2023-04-25T12:00:14;98971.03;;;20.17;35.50
71795;BME280;59641;45.188;5.712;2023-04-25T12:02:43;98985.88;;;20.25;35.38
71795;BME280;59641;45.188;5.712;2023-04-25T12:05:10;98974.72;;;20.27;34.57
71795;BME280;59641;45.188;5.712;2023-04-25T12:07:36;98971.72;;;20.28;35.25
71795;BME280;59641;45.188;5.712;2023-04-25T12:10:09;98973.56;;;20.33;35.22
71795;BME280;59641;45.188;5.712;2023-04-25T12:12:36;98964.78;;;20.36;34.94
71795;BME280;59641;45.188;5.712;2023-04-25T12:15:15;98959.63;;;20.34;34.30
71795;BME280;59641;45.188;5.712;2023-04-25T12:17:45;98968.31;;;20.36;34.33
71795;BME280;59641;45.188;5.712;2023-04-25T12:20:13;98965.22;;;20.43;33.56
71795;BME280;59641;45.188;5.712;2023-04-25T12:22:44;98960.81;;;20.47;34.16
71795;BME280;59641;45.188;5.712;2023-04-25T12:25:38;98964.88;;;20.50;34.27
71795;BME280;59641;45.188;5.712;2023-04-25T12:28:20;98956.25;;;20.42;33.36
71795;BME280;59641;45.188;5.712;2023-04-25T12:31:04;98967.78;;;20.34;33.23
71795;BME280;59641;45.188;5.712;2023-04-25T12:33:34;98980.75;;;20.24;32.70
71795;BME280;59641;45.188;5.712;2023-04-25T12:36:01;98971.09;;;20.12;32.35
71795;BME280;59641;45.188;5.712;2023-04-25T12:38:39;98978.59;;;20.02;32.45
71795;BME280;59641;45.188;5.712;2023-04-25T12:41:05;98969.72;;;19.91;32.07
71795;BME280;59641;45.188;5.712;2023-04-25T12:43:31;98960.56;;;19.82;32.84
71795;BME280;59641;45.188;5.712;2023-04-25T12:45:56;98972.09;;;19.73;32.26
71795;BME280;59641;45.188;5.712;2023-04-25T12:48:22;98967.78;;;19.67;33.14
71795;BME280;59641;45.188;5.712;2023-04-25T12:50:49;98968.09;;;19.66;33.40
71795;BME280;59641;45.188;5.712;2023-04-25T12:53:16;98970.50;;;19.67;33.26
71795;BME280;59641;45.188;5.712;2023-04-25T12:55:42;98962.88;;;19.69;33.72
71795;BME280;59641;45.188;5.712;2023-04-25T12:58:07;98960.69;;;19.71;33.00
71795;BME280;59641;45.188;5.712;2023-04-25T13:00:33;98956.88;;;19.72;33.35
71795;BME280;59641;45.188;5.712;2023-04-25T13:02:58;98968.59;;;19.73;33.61